Crevillente, Spain
Current Conditions -  °F | °C
As of 1:30 PM on Saturday 01 Nov 2014 (Local Time) from LEAL Reporting Station
Few Clouds Few Clouds  
Wind Chill: 75°   Ceiling: Unl
Heat Index: 75°   Visibility: 6mi
Dew Point: 59°   Wind: 5mph
Humidity: 57%   Direction: NA
Pressure: 30.21"   Gusts: 22mph
Location:  38.25°N, 0.81°W
Report Text: LEAL 011230Z VRB04G19KT 9999 FEW018 24/15 Q1023 NOSIG
Loading
Personal Weather Stations






























Interactive Weather Map
Tropical Storm Tracking
New forecast layout! Learn more

10-Day Weather Forecast

Advertisements
Track Severe Weather on mobile